createdAt,value
2023-01-18T00:01:24.926Z,94370.88
2023-01-18T00:03:53.436Z,94372.69
2023-01-18T00:06:22.217Z,94382.63
2023-01-18T00:08:50.354Z,94392.50
2023-01-18T00:11:19.392Z,94384.47
2023-01-18T00:13:54.422Z,94377.97
2023-01-18T00:16:24.293Z,94381.00
2023-01-18T00:19:00.456Z,94394.56
2023-01-18T00:21:31.927Z,94378.84
2023-01-18T00:24:00.464Z,94376.69
2023-01-18T00:26:30.853Z,94372.41
2023-01-18T00:29:00.545Z,94377.78
2023-01-18T00:31:29.314Z,94366.91
2023-01-18T00:33:58.254Z,94371.69
2023-01-18T00:36:27.075Z,94378.25
2023-01-18T00:38:55.771Z,94372.88
2023-01-18T00:41:24.267Z,94374.59
2023-01-18T00:43:52.461Z,94369.31
2023-01-18T00:46:24.548Z,94366.34
2023-01-18T00:48:53.721Z,94366.22
2023-01-18T00:51:24.531Z,94363.56
2023-01-18T00:53:53.097Z,94359.84
2023-01-18T00:56:23.410Z,94358.44
2023-01-18T00:58:52.166Z,94365.81
2023-01-18T01:01:20.574Z,94358.25
2023-01-18T01:04:09.794Z,94347.91
2023-01-18T01:06:47.683Z,94353.16
2023-01-18T01:09:18.755Z,94353.56
2023-01-18T01:12:06.604Z,94348.91
2023-01-18T01:14:54.164Z,94354.94
2023-01-18T01:17:40.059Z,94345.41
2023-01-18T01:20:28.918Z,94341.94
2023-01-18T01:23:14.903Z,94345.09
2023-01-18T01:26:01.014Z,94352.00
2023-01-18T01:28:29.679Z,94351.34
2023-01-18T01:30:58.731Z,94350.81
2023-01-18T01:33:27.665Z,94346.19
2023-01-18T01:36:02.208Z,94358.13
2023-01-18T01:38:31.401Z,94365.41
2023-01-18T01:41:01.350Z,94360.31
2023-01-18T01:43:45.378Z,94365.31
2023-01-18T01:46:26.663Z,94365.56
2023-01-18T01:49:02.319Z,94362.72
2023-01-18T01:51:34.334Z,94360.81
2023-01-18T01:54:08.512Z,94358.19
2023-01-18T01:56:41.392Z,94361.22
2023-01-18T01:59:11.390Z,94361.22
2023-01-18T02:01:43.983Z,94358.66
2023-01-18T02:04:13.592Z,94360.50
2023-01-18T02:06:43.755Z,94358.50
2023-01-18T02:09:16.226Z,94359.56
2023-01-18T02:11:45.223Z,94355.66
2023-01-18T02:14:17.092Z,94364.66
2023-01-18T02:17:01.994Z,94352.16
2023-01-18T02:19:56.576Z,94356.53
2023-01-18T02:22:43.547Z,94363.78
2023-01-18T02:25:34.754Z,94360.75
2023-01-18T02:28:11.273Z,94362.09
2023-01-18T02:30:43.588Z,94358.56
2023-01-18T02:33:20.881Z,94359.31
2023-01-18T02:35:52.944Z,94361.34
2023-01-18T02:38:25.577Z,94370.25
2023-01-18T02:41:09.793Z,94375.59
2023-01-18T02:44:00.288Z,94370.50
2023-01-18T02:46:34.869Z,94370.63
2023-01-18T02:49:07.535Z,94371.47
2023-01-18T02:51:37.131Z,94364.69
2023-01-18T02:54:09.661Z,94368.41
2023-01-18T02:56:42.847Z,94368.13
2023-01-18T02:59:15.259Z,94359.75
2023-01-18T03:01:48.902Z,94359.34
2023-01-18T03:04:22.548Z,94354.41
2023-01-18T03:06:57.554Z,94355.41
2023-01-18T03:09:27.585Z,94355.31
2023-01-18T03:12:02.421Z,94364.38
2023-01-18T03:14:42.061Z,94348.50
2023-01-18T03:17:20.768Z,94344.84
2023-01-18T03:20:07.397Z,94340.34
2023-01-18T03:22:56.918Z,94338.16
2023-01-18T03:25:29.494Z,94338.44
2023-01-18T03:28:17.960Z,94339.75
2023-01-18T03:31:07.776Z,94335.94
2023-01-18T03:33:45.890Z,94343.19
2023-01-18T03:36:19.725Z,94339.22
2023-01-18T03:38:51.743Z,94336.97
2023-01-18T03:41:23.892Z,94338.94
2023-01-18T03:43:56.398Z,94337.34
2023-01-18T03:46:30.548Z,94338.25
2023-01-18T03:49:00.119Z,94328.94
2023-01-18T03:51:42.701Z,94335.66
2023-01-18T03:54:19.298Z,94330.31
2023-01-18T03:56:53.798Z,94330.78
2023-01-18T03:59:22.772Z,94328.63
2023-01-18T04:01:52.494Z,94333.06
2023-01-18T04:04:20.860Z,94332.03
2023-01-18T04:06:49.887Z,94331.38
2023-01-18T04:09:18.748Z,94321.72
2023-01-18T04:11:47.542Z,94324.91
2023-01-18T04:14:16.225Z,94326.13
2023-01-18T04:16:45.145Z,94327.47
2023-01-18T04:19:15.000Z,94318.47
2023-01-18T04:21:43.547Z,94325.13
2023-01-18T04:24:12.815Z,94322.88
2023-01-18T04:26:41.809Z,94329.13
2023-01-18T04:29:11.919Z,94324.69
2023-01-18T04:31:42.025Z,94324.97
2023-01-18T04:34:13.330Z,94324.03
2023-01-18T04:36:51.998Z,94317.53
2023-01-18T04:39:22.630Z,94322.34
2023-01-18T04:41:55.229Z,94324.09
2023-01-18T04:44:26.239Z,94324.28
2023-01-18T04:46:56.249Z,94334.19
2023-01-18T04:49:25.906Z,94331.25
2023-01-18T04:51:56.004Z,94334.97
2023-01-18T04:54:24.465Z,94336.03
2023-01-18T04:56:53.760Z,94345.59
2023-01-18T04:59:21.993Z,94340.47
2023-01-18T05:01:50.160Z,94346.28
2023-01-18T05:04:18.925Z,94343.09
2023-01-18T05:06:49.135Z,94344.75
2023-01-18T05:09:20.173Z,94340.66
2023-01-18T05:11:48.560Z,94350.78
2023-01-18T05:14:17.013Z,94338.84
2023-01-18T05:16:45.477Z,94340.94
2023-01-18T05:19:13.544Z,94341.38
2023-01-18T05:21:42.697Z,94346.50
2023-01-18T05:24:10.981Z,94345.72
2023-01-18T05:26:40.652Z,94348.81
2023-01-18T05:29:09.072Z,94345.38
2023-01-18T05:31:42.103Z,94354.88
2023-01-18T05:34:10.415Z,94359.69
2023-01-18T05:36:39.080Z,94356.69
2023-01-18T05:39:07.314Z,94368.31
2023-01-18T05:41:35.934Z,94369.19
2023-01-18T05:44:06.247Z,94363.94
2023-01-18T05:46:34.650Z,94380.81
2023-01-18T05:49:02.846Z,94370.94
2023-01-18T05:51:31.214Z,94385.84
2023-01-18T05:53:59.409Z,94381.34
2023-01-18T05:56:27.793Z,94386.97
2023-01-18T05:58:56.012Z,94380.91
2023-01-18T06:01:25.768Z,94386.41
2023-01-18T06:03:54.517Z,94378.88
2023-01-18T06:06:22.892Z,94376.09
2023-01-18T06:08:51.469Z,94373.50
2023-01-18T06:11:19.849Z,94379.47
2023-01-18T06:13:48.529Z,94380.06
2023-01-18T06:16:16.657Z,94374.66
2023-01-18T06:18:46.730Z,94378.47
2023-01-18T06:21:15.419Z,94378.72
2023-01-18T06:23:43.700Z,94378.25
2023-01-18T06:26:11.855Z,94380.16
2023-01-18T06:28:40.252Z,94384.78
2023-01-18T06:31:08.878Z,94393.06
2023-01-18T06:33:37.204Z,94387.63
2023-01-18T06:36:08.171Z,94392.16
2023-01-18T06:38:36.565Z,94394.59
2023-01-18T06:41:04.986Z,94393.19
2023-01-18T06:43:33.198Z,94392.88
2023-01-18T06:46:02.905Z,94401.13
2023-01-18T06:48:31.075Z,94403.81
2023-01-18T06:50:59.318Z,94404.75
2023-01-18T06:53:30.671Z,94404.84
2023-01-18T06:56:01.953Z,94400.06
2023-01-18T06:58:32.920Z,94409.88
2023-01-18T07:01:02.260Z,94417.31
2023-01-18T07:03:32.630Z,94410.94
2023-01-18T07:06:03.214Z,94416.63
2023-01-18T07:09:08.183Z,94411.03
2023-01-18T07:11:44.047Z,94424.41
2023-01-18T07:14:22.355Z,94417.97
2023-01-18T07:16:50.967Z,94420.63
2023-01-18T07:19:19.876Z,94418.81
2023-01-18T07:21:49.694Z,94416.03
2023-01-18T07:24:19.859Z,94428.63
2023-01-18T07:26:48.696Z,94428.16
2023-01-18T07:29:17.113Z,94425.53
2023-01-18T07:31:46.537Z,94436.03
2023-01-18T07:34:15.060Z,94441.38
2023-01-18T07:36:43.344Z,94438.44
2023-01-18T07:39:15.425Z,94439.84
2023-01-18T07:41:45.221Z,94449.28
2023-01-18T07:44:13.936Z,94443.25
2023-01-18T07:46:43.569Z,94441.44
2023-01-18T07:49:11.732Z,94452.03
2023-01-18T07:51:41.359Z,94451.22
2023-01-18T07:54:09.901Z,94456.16
2023-01-18T07:56:39.313Z,94456.00
2023-01-18T07:59:09.378Z,94467.78
2023-01-18T08:01:37.780Z,94475.13
2023-01-18T08:04:06.271Z,94469.91
2023-01-18T08:06:35.166Z,94474.66
2023-01-18T08:09:03.315Z,94478.78
2023-01-18T08:11:32.640Z,94481.34
2023-01-18T08:14:00.797Z,94486.47
2023-01-18T08:16:30.929Z,94484.41
2023-01-18T08:19:00.428Z,94486.97
2023-01-18T08:21:28.777Z,94486.47
2023-01-18T08:23:56.786Z,94484.59
2023-01-18T08:26:25.465Z,94484.28
2023-01-18T08:28:53.428Z,94488.59
2023-01-18T08:31:22.828Z,94485.47
2023-01-18T08:33:53.085Z,94488.41
2023-01-18T08:36:25.306Z,94493.28
2023-01-18T08:38:57.422Z,94490.63
2023-01-18T08:41:43.987Z,94493.06
2023-01-18T08:44:21.931Z,94497.69
2023-01-18T08:46:58.750Z,94504.28
2023-01-18T08:49:58.326Z,94503.81
2023-01-18T08:52:36.002Z,94503.59
2023-01-18T08:55:30.006Z,94500.19
2023-01-18T08:58:22.891Z,94509.19
2023-01-18T09:01:12.594Z,94504.75
2023-01-18T09:03:42.694Z,94516.06
2023-01-18T09:06:18.181Z,94514.50
2023-01-18T09:09:08.014Z,94518.84
2023-01-18T09:11:37.975Z,94530.94
2023-01-18T09:14:22.769Z,94523.59
2023-01-18T09:16:52.535Z,94529.53
2023-01-18T09:19:40.157Z,94534.31
2023-01-18T09:22:24.320Z,94528.75
2023-01-18T09:25:07.968Z,94531.91
2023-01-18T09:28:02.546Z,94527.84
2023-01-18T09:30:30.719Z,94528.66
2023-01-18T09:32:59.688Z,94528.47
2023-01-18T09:35:28.056Z,94530.94
2023-01-18T09:37:57.908Z,94534.06
2023-01-18T09:40:35.808Z,94540.56
2023-01-18T09:43:04.481Z,94537.94
2023-01-18T09:45:35.403Z,94529.22
2023-01-18T09:48:06.939Z,94531.72
2023-01-18T09:50:42.783Z,94531.94
2023-01-18T09:53:24.865Z,94527.06
2023-01-18T09:55:58.022Z,94528.63
2023-01-18T09:58:41.661Z,94531.25
2023-01-18T10:01:14.264Z,94539.94
2023-01-18T10:03:50.400Z,94539.72
2023-01-18T10:06:24.479Z,94534.16
2023-01-18T10:08:59.622Z,94536.41
2023-01-18T10:11:37.276Z,94534.38
2023-01-18T10:14:09.291Z,94541.84
2023-01-18T10:16:38.917Z,94544.31
2023-01-18T10:19:16.834Z,94539.56
2023-01-18T10:21:53.323Z,94544.56
2023-01-18T10:24:55.381Z,94546.88
2023-01-18T10:27:44.514Z,94552.25
2023-01-18T10:30:30.239Z,94552.13
2023-01-18T10:33:01.626Z,94545.66
2023-01-18T10:35:34.049Z,94547.06
2023-01-18T10:38:06.341Z,94546.41
2023-01-18T10:40:38.484Z,94544.56
2023-01-18T10:43:12.356Z,94551.84
2023-01-18T10:45:40.605Z,94556.25
2023-01-18T10:48:26.211Z,94564.94
2023-01-18T10:50:56.974Z,94571.97
2023-01-18T10:53:33.339Z,94579.25
2023-01-18T10:56:05.990Z,94574.81
2023-01-18T10:58:42.261Z,94572.03
2023-01-18T11:01:16.632Z,94576.09
2023-01-18T11:03:47.597Z,94591.91
2023-01-18T11:06:19.359Z,94590.00
2023-01-18T11:08:48.009Z,94584.13
2023-01-18T11:11:51.571Z,94590.53
2023-01-18T11:14:27.348Z,94595.97
2023-01-18T11:16:59.693Z,94596.22
2023-01-18T11:19:28.462Z,94604.41
2023-01-18T11:21:57.003Z,94602.56
2023-01-18T11:24:29.217Z,94603.94
2023-01-18T11:27:01.747Z,94613.81
2023-01-18T11:29:32.121Z,94611.31
2023-01-18T11:32:05.160Z,94612.81
2023-01-18T11:34:36.174Z,94618.34
2023-01-18T11:37:05.277Z,94626.81
2023-01-18T11:39:35.964Z,94626.06
2023-01-18T11:42:25.486Z,94615.38
2023-01-18T11:45:04.834Z,94614.19
2023-01-18T11:47:54.744Z,94624.34
2023-01-18T11:50:30.918Z,94631.09
2023-01-18T11:53:05.913Z,94633.84
2023-01-18T11:55:39.351Z,94635.19
2023-01-18T11:58:17.974Z,94636.19
2023-01-18T12:00:59.828Z,94630.00
2023-01-18T12:03:46.751Z,94634.38
2023-01-18T12:06:24.384Z,94640.16
2023-01-18T12:09:13.571Z,94642.59
2023-01-18T12:11:50.214Z,94646.38
2023-01-18T12:14:43.351Z,94653.81
2023-01-18T12:17:27.188Z,94648.94
2023-01-18T12:20:10.572Z,94656.88
2023-01-18T12:22:58.847Z,94668.31
2023-01-18T12:25:41.813Z,94653.94
2023-01-18T12:28:20.076Z,94670.38
2023-01-18T12:31:05.724Z,94680.66
2023-01-18T12:33:46.743Z,94690.66
2023-01-18T12:36:30.154Z,94678.94
2023-01-18T12:38:58.758Z,94683.88
2023-01-18T12:41:39.678Z,94693.16
2023-01-18T12:44:23.990Z,94682.91
2023-01-18T12:47:07.430Z,94692.88
2023-01-18T12:49:40.419Z,94693.50
2023-01-18T12:52:18.504Z,94696.84
2023-01-18T12:54:51.045Z,94702.06
2023-01-18T12:57:20.635Z,94708.16
2023-01-18T12:59:54.987Z,94709.91
2023-01-18T13:02:33.277Z,94714.81
2023-01-18T13:05:07.739Z,94718.03
2023-01-18T13:07:40.441Z,94723.13
2023-01-18T13:10:18.218Z,94725.69
2023-01-18T13:12:47.176Z,94723.47
2023-01-18T13:15:24.910Z,94723.47
2023-01-18T13:18:03.926Z,94733.94
2023-01-18T13:20:43.976Z,94742.56
2023-01-18T13:23:26.604Z,94746.91
2023-01-18T13:26:01.781Z,94747.00
2023-01-18T13:28:30.524Z,94747.72
2023-01-18T13:31:03.370Z,94746.09
2023-01-18T13:33:35.431Z,94755.34
2023-01-18T13:36:07.956Z,94763.38
2023-01-18T13:38:41.856Z,94765.69
2023-01-18T13:41:13.403Z,94768.19
2023-01-18T13:44:02.752Z,94769.34
2023-01-18T13:46:33.071Z,94771.75
2023-01-18T13:49:36.617Z,94780.03
2023-01-18T13:52:31.857Z,94777.50
2023-01-18T13:55:25.722Z,94782.78
2023-01-18T13:57:55.892Z,94788.06
2023-01-18T14:00:25.962Z,94793.56
2023-01-18T14:03:03.344Z,94798.59
2023-01-18T14:05:38.169Z,94798.50
2023-01-18T14:08:07.077Z,94803.13
2023-01-18T14:10:38.600Z,94806.84
2023-01-18T14:13:08.174Z,94814.31
2023-01-18T14:15:52.479Z,94827.63
2023-01-18T14:18:26.122Z,94829.81
2023-01-18T14:21:31.041Z,94829.72
2023-01-18T14:24:14.569Z,94827.53
2023-01-18T14:26:44.319Z,94841.25
2023-01-18T14:29:17.517Z,94844.25
2023-01-18T14:31:49.807Z,94842.78
2023-01-18T14:34:38.034Z,94848.66
2023-01-18T14:37:27.163Z,94862.69
2023-01-18T14:40:20.132Z,94870.97
2023-01-18T14:42:55.282Z,94884.41
2023-01-18T14:45:30.806Z,94887.91
2023-01-18T14:48:01.959Z,94893.38
2023-01-18T14:50:34.442Z,94886.63
2023-01-18T14:53:05.899Z,94888.84
2023-01-18T14:55:35.948Z,94901.00
2023-01-18T14:58:12.088Z,94907.59
2023-01-18T15:00:49.289Z,94907.22
2023-01-18T15:03:26.298Z,94922.63
2023-01-18T15:06:02.162Z,94924.88
2023-01-18T15:08:35.174Z,94937.41
2023-01-18T15:11:06.217Z,94946.13
2023-01-18T15:13:38.704Z,94954.09
2023-01-18T15:16:07.881Z,94962.97
2023-01-18T15:18:35.921Z,94964.88
2023-01-18T15:21:07.801Z,94977.75
2023-01-18T15:23:38.751Z,94980.69
2023-01-18T15:26:07.404Z,94984.88
2023-01-18T15:28:36.080Z,94985.28
2023-01-18T15:31:12.341Z,94986.91
2023-01-18T15:33:41.108Z,94994.66
2023-01-18T15:36:10.925Z,94995.16
2023-01-18T15:38:40.626Z,94999.63
2023-01-18T15:41:11.999Z,94998.28
2023-01-18T15:43:43.513Z,95007.84
2023-01-18T15:46:15.095Z,95007.13
2023-01-18T15:48:52.378Z,95009.03
2023-01-18T15:51:22.991Z,95013.25
2023-01-18T15:53:56.502Z,95015.06
2023-01-18T15:56:27.869Z,95018.00
2023-01-18T15:58:57.467Z,95017.88
2023-01-18T16:01:29.433Z,95028.00
2023-01-18T16:03:59.857Z,95037.88
2023-01-18T16:06:34.110Z,95037.41
2023-01-18T16:09:11.799Z,95046.63
2023-01-18T16:11:47.724Z,95047.72
2023-01-18T16:14:25.274Z,95047.00
2023-01-18T16:16:55.271Z,95043.75
2023-01-18T16:19:28.467Z,95052.03
2023-01-18T16:21:59.742Z,95055.34
2023-01-18T16:24:33.669Z,95060.28
2023-01-18T16:27:11.221Z,95065.63
2023-01-18T16:29:43.919Z,95069.63
2023-01-18T16:32:29.733Z,95080.63
2023-01-18T16:34:59.999Z,95078.38
2023-01-18T16:37:28.719Z,95078.13
2023-01-18T16:39:58.619Z,95080.13
2023-01-18T16:42:37.723Z,95084.03
2023-01-18T16:45:13.815Z,95091.84
2023-01-18T16:47:42.488Z,95102.97
2023-01-18T16:50:15.486Z,95102.09
2023-01-18T16:52:43.646Z,95102.09
2023-01-18T16:55:15.486Z,95108.28
2023-01-18T16:57:44.737Z,95105.03
2023-01-18T17:00:18.664Z,95115.56
2023-01-18T17:02:47.121Z,95124.94
2023-01-18T17:05:16.119Z,95117.84
2023-01-18T17:07:44.684Z,95124.38
2023-01-18T17:10:21.886Z,95127.53
2023-01-18T17:12:50.479Z,95125.94
2023-01-18T17:15:20.098Z,95128.41
2023-01-18T17:17:48.557Z,95133.06
2023-01-18T17:20:19.924Z,95137.44
2023-01-18T17:22:48.081Z,95138.41
2023-01-18T17:25:16.487Z,95146.41
2023-01-18T17:27:46.134Z,95144.50
2023-01-18T17:30:18.042Z,95144.03
2023-01-18T17:32:47.658Z,95148.41
2023-01-18T17:35:17.402Z,95150.09
2023-01-18T17:37:46.096Z,95153.81
2023-01-18T17:40:23.438Z,95153.91
2023-01-18T17:42:53.807Z,95152.75
2023-01-18T17:45:22.321Z,95153.25
2023-01-18T17:47:53.690Z,95167.22
2023-01-18T17:50:25.074Z,95170.97
2023-01-18T17:52:54.211Z,95177.00
2023-01-18T17:55:27.412Z,95169.50
2023-01-18T17:58:00.263Z,95174.84
2023-01-18T18:00:28.439Z,95184.81
2023-01-18T18:02:57.527Z,95185.44
2023-01-18T18:05:26.505Z,95186.47
2023-01-18T18:07:54.739Z,95186.19
2023-01-18T18:10:22.981Z,95192.09
2023-01-18T18:12:51.091Z,95188.25
2023-01-18T18:15:22.359Z,95201.00
2023-01-18T18:17:51.106Z,95200.44
2023-01-18T18:20:21.403Z,95203.63
2023-01-18T18:22:50.117Z,95214.91
2023-01-18T18:25:18.204Z,95212.59
2023-01-18T18:27:47.448Z,95213.03
2023-01-18T18:30:17.617Z,95222.13
2023-01-18T18:32:47.197Z,95220.03
2023-01-18T18:35:25.022Z,95231.75
2023-01-18T18:37:55.705Z,95236.59
2023-01-18T18:40:24.743Z,95234.94
2023-01-18T18:43:01.877Z,95240.38
2023-01-18T18:45:32.628Z,95248.56
2023-01-18T18:48:02.611Z,95253.28
2023-01-18T18:50:32.138Z,95256.66
2023-01-18T18:53:00.681Z,95269.38
2023-01-18T18:55:28.924Z,95264.44
2023-01-18T18:57:56.920Z,95279.84
2023-01-18T19:00:25.762Z,95281.53
2023-01-18T19:02:59.043Z,95285.72
2023-01-18T19:05:29.096Z,95296.41
2023-01-18T19:07:57.243Z,95289.66
2023-01-18T19:10:27.734Z,95309.66
2023-01-18T19:12:55.985Z,95308.00
2023-01-18T19:15:24.478Z,95313.13
2023-01-18T19:17:52.702Z,95306.84
2023-01-18T19:20:22.908Z,95314.34
2023-01-18T19:22:52.640Z,95314.91
2023-01-18T19:25:21.549Z,95324.00
2023-01-18T19:27:49.826Z,95323.00
2023-01-18T19:30:20.225Z,95330.53
2023-01-18T19:32:49.315Z,95330.38
2023-01-18T19:35:18.446Z,95335.84
2023-01-18T19:37:46.773Z,95338.53
2023-01-18T19:40:17.620Z,95344.38
2023-01-18T19:42:47.224Z,95347.88
2023-01-18T19:45:26.796Z,95356.75
2023-01-18T19:47:56.338Z,95354.13
2023-01-18T19:50:25.015Z,95364.19
2023-01-18T19:52:53.705Z,95366.72
2023-01-18T19:55:23.486Z,95365.28
2023-01-18T19:57:52.330Z,95369.31
2023-01-18T20:00:21.156Z,95374.47
2023-01-18T20:02:49.679Z,95383.06
2023-01-18T20:05:18.121Z,95389.53
2023-01-18T20:07:46.564Z,95387.53
2023-01-18T20:10:16.811Z,95402.72
2023-01-18T20:12:46.266Z,95404.47
2023-01-18T20:15:17.484Z,95406.63
2023-01-18T20:17:46.129Z,95413.47
2023-01-18T20:20:20.936Z,95413.25
2023-01-18T20:22:55.759Z,95412.81
2023-01-18T20:25:23.999Z,95418.16
2023-01-18T20:27:53.427Z,95421.25
2023-01-18T20:30:21.763Z,95425.47
2023-01-18T20:32:49.885Z,95436.19
2023-01-18T20:35:18.139Z,95439.34
2023-01-18T20:37:46.560Z,95449.91
2023-01-18T20:40:14.761Z,95454.75
2023-01-18T20:42:43.320Z,95464.41
2023-01-18T20:45:13.115Z,95466.06
2023-01-18T20:47:41.405Z,95464.63
2023-01-18T20:50:10.564Z,95459.94
2023-01-18T20:52:38.971Z,95470.91
2023-01-18T20:55:08.745Z,95467.78
2023-01-18T20:57:36.891Z,95476.25
2023-01-18T21:00:06.622Z,95482.19
2023-01-18T21:02:36.562Z,95475.28
2023-01-18T21:05:05.193Z,95479.84
2023-01-18T21:07:33.275Z,95488.44
2023-01-18T21:10:01.574Z,95493.50
2023-01-18T21:12:29.823Z,95493.28
2023-01-18T21:14:58.153Z,95499.56
2023-01-18T21:17:26.170Z,95497.00
2023-01-18T21:19:59.189Z,95492.28
2023-01-18T21:22:27.743Z,95499.66
2023-01-18T21:24:57.183Z,95501.81
2023-01-18T21:27:26.675Z,95505.91
2023-01-18T21:29:55.003Z,95513.66
2023-01-18T21:32:23.792Z,95521.41
2023-01-18T21:34:51.875Z,95522.84
2023-01-18T21:37:21.287Z,95518.22
2023-01-18T21:39:49.779Z,95525.47
2023-01-18T21:42:35.167Z,95518.69
2023-01-18T21:45:20.643Z,95512.91
2023-01-18T21:47:48.757Z,95509.84
2023-01-18T21:50:35.225Z,95514.94
2023-01-18T21:53:22.339Z,95508.22
2023-01-18T21:55:52.205Z,95503.84
2023-01-18T21:58:37.867Z,95512.84
2023-01-18T22:01:12.140Z,95518.47
2023-01-18T22:03:41.471Z,95524.06
2023-01-18T22:06:09.541Z,95516.91
2023-01-18T22:08:39.296Z,95524.66
2023-01-18T22:11:07.699Z,95533.72
2023-01-18T22:13:35.700Z,95540.44
2023-01-18T22:16:06.663Z,95545.00
2023-01-18T22:18:34.935Z,95542.03
2023-01-18T22:21:02.918Z,95559.91
2023-01-18T22:23:31.149Z,95560.09
2023-01-18T22:26:00.546Z,95564.53
2023-01-18T22:28:28.869Z,95574.44
2023-01-18T22:30:58.691Z,95582.91
2023-01-18T22:33:27.017Z,95590.50
2023-01-18T22:35:59.010Z,95594.59
2023-01-18T22:38:27.152Z,95593.03
2023-01-18T22:41:03.555Z,95592.06
2023-01-18T22:43:32.294Z,95604.31
2023-01-18T22:46:01.088Z,95599.84
2023-01-18T22:48:29.136Z,95609.72
2023-01-18T22:50:59.420Z,95615.72
2023-01-18T22:53:29.493Z,95618.69
2023-01-18T22:56:04.095Z,95629.34
2023-01-18T22:58:32.522Z,95619.34
2023-01-18T23:01:01.410Z,95634.81
2023-01-18T23:03:31.973Z,95631.59
2023-01-18T23:06:01.660Z,95628.16
2023-01-18T23:08:38.442Z,95637.69
2023-01-18T23:11:09.248Z,95637.66
2023-01-18T23:13:38.086Z,95657.19
2023-01-18T23:16:28.726Z,95651.31
2023-01-18T23:18:56.838Z,95657.47
2023-01-18T23:21:25.278Z,95662.81
2023-01-18T23:23:53.958Z,95660.59
2023-01-18T23:26:23.668Z,95664.25
2023-01-18T23:28:52.453Z,95665.69
2023-01-18T23:31:20.800Z,95661.28
2023-01-18T23:33:49.373Z,95673.03
2023-01-18T23:36:17.968Z,95668.13
2023-01-18T23:39:04.051Z,95673.59
2023-01-18T23:41:51.336Z,95675.03
2023-01-18T23:44:37.882Z,95686.75
2023-01-18T23:47:23.557Z,95694.09
2023-01-18T23:50:09.423Z,95693.47
2023-01-18T23:52:55.222Z,95691.72
2023-01-18T23:55:23.489Z,95697.75
2023-01-18T23:57:53.130Z,95702.13
